sensor_id;sensor_type;location;lat;lon;timestamp;P1;durP1;ratioP1;P2;durP2;ratioP2
611;SDS011;293;53.888;11.464;2022-10-16T00:01:06;8.10;;;7.40;;
611;SDS011;293;53.888;11.464;2022-10-16T00:03:34;8.23;;;7.53;;
611;SDS011;293;53.888;11.464;2022-10-16T00:06:01;8.20;;;7.60;;
611;SDS011;293;53.888;11.464;2022-10-16T00:08:29;9.53;;;8.67;;
611;SDS011;293;53.888;11.464;2022-10-16T00:11:00;7.73;;;7.10;;
611;SDS011;293;53.888;11.464;2022-10-16T00:13:29;7.13;;;6.63;;
611;SDS011;293;53.888;11.464;2022-10-16T00:15:56;9.27;;;8.53;;
611;SDS011;293;53.888;11.464;2022-10-16T00:18:24;10.43;;;9.63;;
611;SDS011;293;53.888;11.464;2022-10-16T00:20:51;8.70;;;7.90;;
611;SDS011;293;53.888;11.464;2022-10-16T00:23:18;9.20;;;8.13;;
611;SDS011;293;53.888;11.464;2022-10-16T00:25:45;8.13;;;7.43;;
611;SDS011;293;53.888;11.464;2022-10-16T00:28:21;6.93;;;6.43;;
611;SDS011;293;53.888;11.464;2022-10-16T00:30:49;7.53;;;6.90;;
611;SDS011;293;53.888;11.464;2022-10-16T00:33:16;9.10;;;8.30;;
611;SDS011;293;53.888;11.464;2022-10-16T00:35:42;7.73;;;7.13;;
611;SDS011;293;53.888;11.464;2022-10-16T00:38:09;9.07;;;8.13;;
611;SDS011;293;53.888;11.464;2022-10-16T00:40:36;8.93;;;8.30;;
611;SDS011;293;53.888;11.464;2022-10-16T00:43:07;10.37;;;9.57;;
611;SDS011;293;53.888;11.464;2022-10-16T00:45:38;10.20;;;9.40;;
611;SDS011;293;53.888;11.464;2022-10-16T00:48:07;9.30;;;8.40;;
611;SDS011;293;53.888;11.464;2022-10-16T00:50:39;9.83;;;8.93;;
611;SDS011;293;53.888;11.464;2022-10-16T00:53:08;9.90;;;8.67;;
611;SDS011;293;53.888;11.464;2022-10-16T00:55:36;10.50;;;9.60;;
611;SDS011;293;53.888;11.464;2022-10-16T00:58:03;10.43;;;9.53;;
611;SDS011;293;53.888;11.464;2022-10-16T01:00:30;9.23;;;8.33;;
611;SDS011;293;53.888;11.464;2022-10-16T01:02:58;10.63;;;7.73;;
611;SDS011;293;53.888;11.464;2022-10-16T01:05:30;7.23;;;6.63;;
611;SDS011;293;53.888;11.464;2022-10-16T01:08:02;8.40;;;6.67;;
611;SDS011;293;53.888;11.464;2022-10-16T01:10:35;7.80;;;6.30;;
611;SDS011;293;53.888;11.464;2022-10-16T01:13:06;8.10;;;6.77;;
611;SDS011;293;53.888;11.464;2022-10-16T01:15:34;7.10;;;6.40;;
611;SDS011;293;53.888;11.464;2022-10-16T01:18:08;6.87;;;5.40;;
611;SDS011;293;53.888;11.464;2022-10-16T01:20:43;5.47;;;4.90;;
611;SDS011;293;53.888;11.464;2022-10-16T01:23:21;5.07;;;4.57;;
611;SDS011;293;53.888;11.464;2022-10-16T01:26:05;5.10;;;4.70;;
611;SDS011;293;53.888;11.464;2022-10-16T01:28:48;4.47;;;4.17;;
611;SDS011;293;53.888;11.464;2022-10-16T01:31:19;5.10;;;4.70;;
611;SDS011;293;53.888;11.464;2022-10-16T01:33:51;5.17;;;4.43;;
611;SDS011;293;53.888;11.464;2022-10-16T01:36:26;5.30;;;4.80;;
611;SDS011;293;53.888;11.464;2022-10-16T01:38:58;5.77;;;4.80;;
611;SDS011;293;53.888;11.464;2022-10-16T01:41:30;6.30;;;5.80;;
611;SDS011;293;53.888;11.464;2022-10-16T01:44:01;5.73;;;5.13;;
611;SDS011;293;53.888;11.464;2022-10-16T01:46:30;6.40;;;5.80;;
611;SDS011;293;53.888;11.464;2022-10-16T01:48:59;5.93;;;5.40;;
611;SDS011;293;53.888;11.464;2022-10-16T01:51:28;5.57;;;5.17;;
611;SDS011;293;53.888;11.464;2022-10-16T01:53:56;8.83;;;6.40;;
611;SDS011;293;53.888;11.464;2022-10-16T01:56:26;6.40;;;5.90;;
611;SDS011;293;53.888;11.464;2022-10-16T01:58:55;7.93;;;7.23;;
611;SDS011;293;53.888;11.464;2022-10-16T02:01:27;6.50;;;5.37;;
611;SDS011;293;53.888;11.464;2022-10-16T02:03:59;6.43;;;5.83;;
611;SDS011;293;53.888;11.464;2022-10-16T02:06:30;7.00;;;6.30;;
611;SDS011;293;53.888;11.464;2022-10-16T02:08:58;7.80;;;5.47;;
611;SDS011;293;53.888;11.464;2022-10-16T02:11:25;6.43;;;5.93;;
611;SDS011;293;53.888;11.464;2022-10-16T02:13:53;7.00;;;6.40;;
611;SDS011;293;53.888;11.464;2022-10-16T02:16:23;7.10;;;6.43;;
611;SDS011;293;53.888;11.464;2022-10-16T02:18:58;10.30;;;6.17;;
611;SDS011;293;53.888;11.464;2022-10-16T02:21:25;8.20;;;6.30;;
611;SDS011;293;53.888;11.464;2022-10-16T02:23:55;7.47;;;6.87;;
611;SDS011;293;53.888;11.464;2022-10-16T02:26:30;7.63;;;6.87;;
611;SDS011;293;53.888;11.464;2022-10-16T02:29:02;7.30;;;6.57;;
611;SDS011;293;53.888;11.464;2022-10-16T02:31:35;8.90;;;7.07;;
611;SDS011;293;53.888;11.464;2022-10-16T02:34:07;7.00;;;6.40;;
611;SDS011;293;53.888;11.464;2022-10-16T02:36:36;7.83;;;6.80;;
611;SDS011;293;53.888;11.464;2022-10-16T02:39:05;7.20;;;6.60;;
611;SDS011;293;53.888;11.464;2022-10-16T02:41:32;7.53;;;6.90;;
611;SDS011;293;53.888;11.464;2022-10-16T02:43:59;7.80;;;7.10;;
611;SDS011;293;53.888;11.464;2022-10-16T02:46:26;8.17;;;7.47;;
611;SDS011;293;53.888;11.464;2022-10-16T02:48:54;7.27;;;6.50;;
611;SDS011;293;53.888;11.464;2022-10-16T02:51:21;7.20;;;6.50;;
611;SDS011;293;53.888;11.464;2022-10-16T02:53:47;8.10;;;7.40;;
611;SDS011;293;53.888;11.464;2022-10-16T02:56:14;14.30;;;7.73;;
611;SDS011;293;53.888;11.464;2022-10-16T02:58:41;7.93;;;6.90;;
611;SDS011;293;53.888;11.464;2022-10-16T03:01:08;9.27;;;7.03;;
611;SDS011;293;53.888;11.464;2022-10-16T03:03:34;11.20;;;8.23;;
611;SDS011;293;53.888;11.464;2022-10-16T03:06:03;7.77;;;6.97;;
611;SDS011;293;53.888;11.464;2022-10-16T03:08:30;7.23;;;6.53;;
611;SDS011;293;53.888;11.464;2022-10-16T03:10:57;7.50;;;5.93;;
611;SDS011;293;53.888;11.464;2022-10-16T03:13:24;7.97;;;7.17;;
611;SDS011;293;53.888;11.464;2022-10-16T03:15:51;7.23;;;6.13;;
611;SDS011;293;53.888;11.464;2022-10-16T03:18:18;6.50;;;6.00;;
611;SDS011;293;53.888;11.464;2022-10-16T03:20:44;5.67;;;5.17;;
611;SDS011;293;53.888;11.464;2022-10-16T03:23:13;5.83;;;5.30;;
611;SDS011;293;53.888;11.464;2022-10-16T03:25:39;5.87;;;5.37;;
611;SDS011;293;53.888;11.464;2022-10-16T03:28:06;5.50;;;5.13;;
611;SDS011;293;53.888;11.464;2022-10-16T03:30:33;7.27;;;5.40;;
611;SDS011;293;53.888;11.464;2022-10-16T03:33:00;4.80;;;4.43;;
611;SDS011;293;53.888;11.464;2022-10-16T03:35:26;8.23;;;5.07;;
611;SDS011;293;53.888;11.464;2022-10-16T03:37:53;5.30;;;4.80;;
611;SDS011;293;53.888;11.464;2022-10-16T03:40:21;4.67;;;4.27;;
611;SDS011;293;53.888;11.464;2022-10-16T03:42:48;5.23;;;4.83;;
611;SDS011;293;53.888;11.464;2022-10-16T03:45:15;6.40;;;4.57;;
611;SDS011;293;53.888;11.464;2022-10-16T03:47:42;13.80;;;7.13;;
611;SDS011;293;53.888;11.464;2022-10-16T03:50:09;5.40;;;3.70;;
611;SDS011;293;53.888;11.464;2022-10-16T03:52:35;6.33;;;4.90;;
611;SDS011;293;53.888;11.464;2022-10-16T03:55:02;4.70;;;4.00;;
611;SDS011;293;53.888;11.464;2022-10-16T03:57:31;9.20;;;3.57;;
611;SDS011;293;53.888;11.464;2022-10-16T03:59:57;7.90;;;3.57;;
611;SDS011;293;53.888;11.464;2022-10-16T04:02:24;3.57;;;3.30;;
611;SDS011;293;53.888;11.464;2022-10-16T04:04:51;4.10;;;3.33;;
611;SDS011;293;53.888;11.464;2022-10-16T04:07:18;5.37;;;3.50;;
611;SDS011;293;53.888;11.464;2022-10-16T04:09:45;4.20;;;3.27;;
611;SDS011;293;53.888;11.464;2022-10-16T04:12:12;2.50;;;2.30;;
611;SDS011;293;53.888;11.464;2022-10-16T04:14:40;4.70;;;2.67;;
611;SDS011;293;53.888;11.464;2022-10-16T04:17:07;3.30;;;3.10;;
611;SDS011;293;53.888;11.464;2022-10-16T04:19:34;5.50;;;3.20;;
611;SDS011;293;53.888;11.464;2022-10-16T04:22:00;2.93;;;2.70;;
611;SDS011;293;53.888;11.464;2022-10-16T04:24:27;2.80;;;2.60;;
611;SDS011;293;53.888;11.464;2022-10-16T04:26:54;5.07;;;2.70;;
611;SDS011;293;53.888;11.464;2022-10-16T04:29:21;2.57;;;2.37;;
611;SDS011;293;53.888;11.464;2022-10-16T04:31:49;2.60;;;2.40;;
611;SDS011;293;53.888;11.464;2022-10-16T04:34:16;2.80;;;1.83;;
611;SDS011;293;53.888;11.464;2022-10-16T04:36:42;3.33;;;2.43;;
611;SDS011;293;53.888;11.464;2022-10-16T04:39:09;2.70;;;1.90;;
611;SDS011;293;53.888;11.464;2022-10-16T04:41:36;2.40;;;2.10;;
611;SDS011;293;53.888;11.464;2022-10-16T04:44:03;2.60;;;2.40;;
611;SDS011;293;53.888;11.464;2022-10-16T04:46:29;3.20;;;2.30;;
611;SDS011;293;53.888;11.464;2022-10-16T04:48:58;4.20;;;2.23;;
611;SDS011;293;53.888;11.464;2022-10-16T04:51:25;3.70;;;2.40;;
611;SDS011;293;53.888;11.464;2022-10-16T04:53:52;3.00;;;2.63;;
611;SDS011;293;53.888;11.464;2022-10-16T04:56:19;4.07;;;2.67;;
611;SDS011;293;53.888;11.464;2022-10-16T04:58:46;3.37;;;2.70;;
611;SDS011;293;53.888;11.464;2022-10-16T05:01:13;3.07;;;1.93;;
611;SDS011;293;53.888;11.464;2022-10-16T05:03:40;4.10;;;3.07;;
611;SDS011;293;53.888;11.464;2022-10-16T05:06:08;2.00;;;1.80;;
611;SDS011;293;53.888;11.464;2022-10-16T05:08:35;3.70;;;2.13;;
611;SDS011;293;53.888;11.464;2022-10-16T05:11:02;4.27;;;3.17;;
611;SDS011;293;53.888;11.464;2022-10-16T05:13:29;4.37;;;2.40;;
611;SDS011;293;53.888;11.464;2022-10-16T05:15:55;4.53;;;2.80;;
611;SDS011;293;53.888;11.464;2022-10-16T05:18:23;5.37;;;2.30;;
611;SDS011;293;53.888;11.464;2022-10-16T05:20:49;6.83;;;2.60;;
611;SDS011;293;53.888;11.464;2022-10-16T05:23:18;3.30;;;2.20;;
611;SDS011;293;53.888;11.464;2022-10-16T05:25:51;5.50;;;2.40;;
611;SDS011;293;53.888;11.464;2022-10-16T05:28:19;4.90;;;2.50;;
611;SDS011;293;53.888;11.464;2022-10-16T05:30:46;5.13;;;2.07;;
611;SDS011;293;53.888;11.464;2022-10-16T05:33:13;4.23;;;2.60;;
611;SDS011;293;53.888;11.464;2022-10-16T05:35:39;3.90;;;2.13;;
611;SDS011;293;53.888;11.464;2022-10-16T05:38:06;4.83;;;2.47;;
611;SDS011;293;53.888;11.464;2022-10-16T05:40:34;4.47;;;2.07;;
611;SDS011;293;53.888;11.464;2022-10-16T05:43:01;2.80;;;2.03;;
611;SDS011;293;53.888;11.464;2022-10-16T05:45:28;3.03;;;1.97;;
611;SDS011;293;53.888;11.464;2022-10-16T05:47:55;4.60;;;2.17;;
611;SDS011;293;53.888;11.464;2022-10-16T05:50:21;4.03;;;2.40;;
611;SDS011;293;53.888;11.464;2022-10-16T05:52:49;3.40;;;1.97;;
611;SDS011;293;53.888;11.464;2022-10-16T05:55:15;5.97;;;2.13;;
611;SDS011;293;53.888;11.464;2022-10-16T05:57:44;4.00;;;1.77;;
611;SDS011;293;53.888;11.464;2022-10-16T06:00:11;4.27;;;1.83;;
611;SDS011;293;53.888;11.464;2022-10-16T06:02:38;3.47;;;2.77;;
611;SDS011;293;53.888;11.464;2022-10-16T06:05:05;2.33;;;2.13;;
611;SDS011;293;53.888;11.464;2022-10-16T06:07:33;2.03;;;1.60;;
611;SDS011;293;53.888;11.464;2022-10-16T06:10:01;21.97;;;19.40;;
611;SDS011;293;53.888;11.464;2022-10-16T06:12:28;9.83;;;8.70;;
611;SDS011;293;53.888;11.464;2022-10-16T06:14:56;24.97;;;11.90;;
611;SDS011;293;53.888;11.464;2022-10-16T06:17:23;10.13;;;4.53;;
611;SDS011;293;53.888;11.464;2022-10-16T06:19:49;5.77;;;3.33;;
611;SDS011;293;53.888;11.464;2022-10-16T06:22:16;4.67;;;2.10;;
611;SDS011;293;53.888;11.464;2022-10-16T06:24:43;4.07;;;2.67;;
611;SDS011;293;53.888;11.464;2022-10-16T06:27:10;3.40;;;2.00;;
611;SDS011;293;53.888;11.464;2022-10-16T06:29:37;3.97;;;2.10;;
611;SDS011;293;53.888;11.464;2022-10-16T06:32:05;1.53;;;1.43;;
611;SDS011;293;53.888;11.464;2022-10-16T06:34:32;2.50;;;2.17;;
611;SDS011;293;53.888;11.464;2022-10-16T06:36:58;2.27;;;1.90;;
611;SDS011;293;53.888;11.464;2022-10-16T06:39:25;2.23;;;1.80;;
611;SDS011;293;53.888;11.464;2022-10-16T06:41:52;2.80;;;2.07;;
611;SDS011;293;53.888;11.464;2022-10-16T06:44:19;6.50;;;2.00;;
611;SDS011;293;53.888;11.464;2022-10-16T06:46:45;4.87;;;1.93;;
611;SDS011;293;53.888;11.464;2022-10-16T06:49:14;2.27;;;2.13;;
611;SDS011;293;53.888;11.464;2022-10-16T06:51:47;1.70;;;1.60;;
611;SDS011;293;53.888;11.464;2022-10-16T06:54:14;7.37;;;2.77;;
611;SDS011;293;53.888;11.464;2022-10-16T06:56:41;4.67;;;2.27;;
611;SDS011;293;53.888;11.464;2022-10-16T06:59:08;1.60;;;1.47;;
611;SDS011;293;53.888;11.464;2022-10-16T07:01:35;4.53;;;2.23;;
611;SDS011;293;53.888;11.464;2022-10-16T07:04:02;2.33;;;2.00;;
611;SDS011;293;53.888;11.464;2022-10-16T07:06:31;3.70;;;1.63;;
611;SDS011;293;53.888;11.464;2022-10-16T07:09:00;2.87;;;1.87;;
611;SDS011;293;53.888;11.464;2022-10-16T07:11:29;6.57;;;4.23;;
611;SDS011;293;53.888;11.464;2022-10-16T07:13:56;29.30;;;23.47;;
611;SDS011;293;53.888;11.464;2022-10-16T07:16:23;7.13;;;6.43;;
611;SDS011;293;53.888;11.464;2022-10-16T07:18:51;10.30;;;9.30;;
611;SDS011;293;53.888;11.464;2022-10-16T07:21:23;3.67;;;3.37;;
611;SDS011;293;53.888;11.464;2022-10-16T07:23:52;5.40;;;1.90;;
611;SDS011;293;53.888;11.464;2022-10-16T07:26:19;3.77;;;2.70;;
611;SDS011;293;53.888;11.464;2022-10-16T07:28:46;3.40;;;2.73;;
611;SDS011;293;53.888;11.464;2022-10-16T07:31:13;2.53;;;2.10;;
611;SDS011;293;53.888;11.464;2022-10-16T07:33:42;3.77;;;2.40;;
611;SDS011;293;53.888;11.464;2022-10-16T07:36:10;2.60;;;1.97;;
611;SDS011;293;53.888;11.464;2022-10-16T07:38:37;5.13;;;1.93;;
611;SDS011;293;53.888;11.464;2022-10-16T07:41:06;4.00;;;2.00;;
611;SDS011;293;53.888;11.464;2022-10-16T07:43:33;7.27;;;5.70;;
611;SDS011;293;53.888;11.464;2022-10-16T07:46:00;3.57;;;3.00;;
611;SDS011;293;53.888;11.464;2022-10-16T07:48:28;7.07;;;2.53;;
611;SDS011;293;53.888;11.464;2022-10-16T07:50:57;2.77;;;2.33;;
611;SDS011;293;53.888;11.464;2022-10-16T07:53:24;1.70;;;1.43;;
611;SDS011;293;53.888;11.464;2022-10-16T07:55:51;4.67;;;2.37;;
611;SDS011;293;53.888;11.464;2022-10-16T07:58:19;1.93;;;1.80;;
611;SDS011;293;53.888;11.464;2022-10-16T08:00:46;3.83;;;1.87;;
611;SDS011;293;53.888;11.464;2022-10-16T08:03:13;3.83;;;1.80;;
611;SDS011;293;53.888;11.464;2022-10-16T08:05:40;1.60;;;1.40;;
611;SDS011;293;53.888;11.464;2022-10-16T08:08:10;6.00;;;1.97;;
611;SDS011;293;53.888;11.464;2022-10-16T08:10:39;2.90;;;1.97;;
611;SDS011;293;53.888;11.464;2022-10-16T08:13:05;4.57;;;2.00;;
611;SDS011;293;53.888;11.464;2022-10-16T08:15:34;6.73;;;2.43;;
611;SDS011;293;53.888;11.464;2022-10-16T08:18:01;4.53;;;2.93;;
611;SDS011;293;53.888;11.464;2022-10-16T08:20:29;4.23;;;3.83;;
611;SDS011;293;53.888;11.464;2022-10-16T08:22:57;6.63;;;6.03;;
611;SDS011;293;53.888;11.464;2022-10-16T08:25:25;13.23;;;9.27;;
611;SDS011;293;53.888;11.464;2022-10-16T08:27:52;4.03;;;2.63;;
611;SDS011;293;53.888;11.464;2022-10-16T08:30:20;6.97;;;4.40;;
611;SDS011;293;53.888;11.464;2022-10-16T08:32:49;5.47;;;3.03;;
611;SDS011;293;53.888;11.464;2022-10-16T08:35:16;2.90;;;2.60;;
611;SDS011;293;53.888;11.464;2022-10-16T08:37:43;6.87;;;2.53;;
611;SDS011;293;53.888;11.464;2022-10-16T08:40:14;5.43;;;2.17;;
611;SDS011;293;53.888;11.464;2022-10-16T08:42:52;3.17;;;2.23;;
611;SDS011;293;53.888;11.464;2022-10-16T08:45:41;4.50;;;2.40;;
611;SDS011;293;53.888;11.464;2022-10-16T08:48:20;2.80;;;2.23;;
611;SDS011;293;53.888;11.464;2022-10-16T08:50:51;2.63;;;1.53;;
611;SDS011;293;53.888;11.464;2022-10-16T08:53:20;2.43;;;2.23;;
611;SDS011;293;53.888;11.464;2022-10-16T08:55:51;3.70;;;2.00;;
611;SDS011;293;53.888;11.464;2022-10-16T08:58:19;4.23;;;2.63;;
611;SDS011;293;53.888;11.464;2022-10-16T09:00:47;3.00;;;2.30;;
611;SDS011;293;53.888;11.464;2022-10-16T09:03:26;3.63;;;2.37;;
611;SDS011;293;53.888;11.464;2022-10-16T09:06:21;2.27;;;1.77;;
611;SDS011;293;53.888;11.464;2022-10-16T09:09:01;7.13;;;2.33;;
611;SDS011;293;53.888;11.464;2022-10-16T09:11:39;5.07;;;2.07;;
611;SDS011;293;53.888;11.464;2022-10-16T09:14:17;4.50;;;1.50;;
611;SDS011;293;53.888;11.464;2022-10-16T09:17:03;3.80;;;1.77;;
611;SDS011;293;53.888;11.464;2022-10-16T09:19:45;2.17;;;1.70;;
611;SDS011;293;53.888;11.464;2022-10-16T09:22:17;5.07;;;3.07;;
611;SDS011;293;53.888;11.464;2022-10-16T09:24:47;6.40;;;2.70;;
611;SDS011;293;53.888;11.464;2022-10-16T09:27:14;3.67;;;2.63;;
611;SDS011;293;53.888;11.464;2022-10-16T09:29:41;2.57;;;2.10;;
611;SDS011;293;53.888;11.464;2022-10-16T09:32:10;5.17;;;1.63;;
611;SDS011;293;53.888;11.464;2022-10-16T09:34:41;4.37;;;2.73;;
611;SDS011;293;53.888;11.464;2022-10-16T09:37:14;3.07;;;1.30;;
611;SDS011;293;53.888;11.464;2022-10-16T09:39:44;2.73;;;2.10;;
611;SDS011;293;53.888;11.464;2022-10-16T09:42:14;1.83;;;1.73;;
611;SDS011;293;53.888;11.464;2022-10-16T09:44:42;3.20;;;2.20;;
611;SDS011;293;53.888;11.464;2022-10-16T09:47:15;6.33;;;2.00;;
611;SDS011;293;53.888;11.464;2022-10-16T09:49:53;1.83;;;1.40;;
611;SDS011;293;53.888;11.464;2022-10-16T09:52:22;3.43;;;2.10;;
611;SDS011;293;53.888;11.464;2022-10-16T09:54:50;3.53;;;2.63;;
611;SDS011;293;53.888;11.464;2022-10-16T09:57:18;3.23;;;2.27;;
611;SDS011;293;53.888;11.464;2022-10-16T09:59:46;4.90;;;2.10;;
611;SDS011;293;53.888;11.464;2022-10-16T10:02:14;3.30;;;1.90;;
611;SDS011;293;53.888;11.464;2022-10-16T10:04:44;1.57;;;1.23;;
611;SDS011;293;53.888;11.464;2022-10-16T10:07:18;4.13;;;1.30;;
611;SDS011;293;53.888;11.464;2022-10-16T10:09:50;6.47;;;2.00;;
611;SDS011;293;53.888;11.464;2022-10-16T10:12:18;2.23;;;1.50;;
611;SDS011;293;53.888;11.464;2022-10-16T10:14:47;1.10;;;1.00;;
611;SDS011;293;53.888;11.464;2022-10-16T10:17:16;6.77;;;1.70;;
611;SDS011;293;53.888;11.464;2022-10-16T10:19:46;1.83;;;1.70;;
611;SDS011;293;53.888;11.464;2022-10-16T10:22:21;2.70;;;1.30;;
611;SDS011;293;53.888;11.464;2022-10-16T10:24:59;1.23;;;1.03;;
611;SDS011;293;53.888;11.464;2022-10-16T10:27:48;2.60;;;1.00;;
611;SDS011;293;53.888;11.464;2022-10-16T10:30:44;2.37;;;1.23;;
611;SDS011;293;53.888;11.464;2022-10-16T10:33:18;3.47;;;1.27;;
611;SDS011;293;53.888;11.464;2022-10-16T10:35:53;2.63;;;1.60;;
611;SDS011;293;53.888;11.464;2022-10-16T10:38:29;1.70;;;0.97;;
611;SDS011;293;53.888;11.464;2022-10-16T10:41:09;1.60;;;1.33;;
611;SDS011;293;53.888;11.464;2022-10-16T10:43:50;2.13;;;1.20;;
611;SDS011;293;53.888;11.464;2022-10-16T10:46:26;1.40;;;1.30;;
611;SDS011;293;53.888;11.464;2022-10-16T10:49:03;6.23;;;2.70;;
611;SDS011;293;53.888;11.464;2022-10-16T10:51:41;2.83;;;1.60;;
611;SDS011;293;53.888;11.464;2022-10-16T10:54:22;3.07;;;1.57;;
611;SDS011;293;53.888;11.464;2022-10-16T10:56:56;3.10;;;1.30;;
611;SDS011;293;53.888;11.464;2022-10-16T10:59:42;1.50;;;1.10;;
611;SDS011;293;53.888;11.464;2022-10-16T11:02:31;2.60;;;1.27;;
611;SDS011;293;53.888;11.464;2022-10-16T11:05:08;1.50;;;0.97;;
611;SDS011;293;53.888;11.464;2022-10-16T11:07:51;1.77;;;1.43;;
611;SDS011;293;53.888;11.464;2022-10-16T11:10:23;3.10;;;1.50;;
611;SDS011;293;53.888;11.464;2022-10-16T11:12:54;1.47;;;1.00;;
611;SDS011;293;53.888;11.464;2022-10-16T11:15:25;4.63;;;1.30;;
611;SDS011;293;53.888;11.464;2022-10-16T11:17:55;2.00;;;0.93;;
611;SDS011;293;53.888;11.464;2022-10-16T11:20:28;3.37;;;0.80;;
611;SDS011;293;53.888;11.464;2022-10-16T11:23:00;1.00;;;0.57;;
611;SDS011;293;53.888;11.464;2022-10-16T11:25:35;4.10;;;1.17;;
611;SDS011;293;53.888;11.464;2022-10-16T11:28:03;2.83;;;0.67;;
611;SDS011;293;53.888;11.464;2022-10-16T11:30:39;1.53;;;0.90;;
611;SDS011;293;53.888;11.464;2022-10-16T11:33:18;2.37;;;1.13;;
611;SDS011;293;53.888;11.464;2022-10-16T11:35:53;5.50;;;1.40;;
611;SDS011;293;53.888;11.464;2022-10-16T11:38:26;1.33;;;0.93;;
611;SDS011;293;53.888;11.464;2022-10-16T11:41:00;3.80;;;1.10;;
611;SDS011;293;53.888;11.464;2022-10-16T11:43:37;2.87;;;1.13;;
611;SDS011;293;53.888;11.464;2022-10-16T11:46:08;2.50;;;0.90;;
611;SDS011;293;53.888;11.464;2022-10-16T11:48:41;3.90;;;0.70;;
611;SDS011;293;53.888;11.464;2022-10-16T11:51:14;1.67;;;0.70;;
611;SDS011;293;53.888;11.464;2022-10-16T11:53:49;4.60;;;0.70;;
611;SDS011;293;53.888;11.464;2022-10-16T11:56:22;4.40;;;0.77;;
611;SDS011;293;53.888;11.464;2022-10-16T11:58:52;6.13;;;1.30;;
611;SDS011;293;53.888;11.464;2022-10-16T12:01:26;2.00;;;0.97;;
611;SDS011;293;53.888;11.464;2022-10-16T12:04:14;2.70;;;1.00;;
611;SDS011;293;53.888;11.464;2022-10-16T12:06:46;4.23;;;1.83;;
611;SDS011;293;53.888;11.464;2022-10-16T12:09:20;2.77;;;0.67;;
611;SDS011;293;53.888;11.464;2022-10-16T12:11:52;6.03;;;1.20;;
611;SDS011;293;53.888;11.464;2022-10-16T12:14:33;4.00;;;0.90;;
611;SDS011;293;53.888;11.464;2022-10-16T12:17:02;2.37;;;1.03;;
611;SDS011;293;53.888;11.464;2022-10-16T12:19:56;5.23;;;1.20;;
611;SDS011;293;53.888;11.464;2022-10-16T12:22:24;1.53;;;0.70;;
611;SDS011;293;53.888;11.464;2022-10-16T12:24:54;2.70;;;0.90;;
611;SDS011;293;53.888;11.464;2022-10-16T12:27:23;2.40;;;1.00;;
611;SDS011;293;53.888;11.464;2022-10-16T12:29:54;1.87;;;0.90;;
611;SDS011;293;53.888;11.464;2022-10-16T12:32:24;3.07;;;1.17;;
611;SDS011;293;53.888;11.464;2022-10-16T12:34:55;1.40;;;0.70;;
611;SDS011;293;53.888;11.464;2022-10-16T12:37:23;5.73;;;2.10;;
611;SDS011;293;53.888;11.464;2022-10-16T12:39:52;4.30;;;0.90;;
611;SDS011;293;53.888;11.464;2022-10-16T12:42:32;2.50;;;0.80;;
611;SDS011;293;53.888;11.464;2022-10-16T12:45:00;1.53;;;0.77;;
611;SDS011;293;53.888;11.464;2022-10-16T12:47:37;1.47;;;0.70;;
611;SDS011;293;53.888;11.464;2022-10-16T12:50:24;1.60;;;0.70;;
611;SDS011;293;53.888;11.464;2022-10-16T12:52:55;1.87;;;0.90;;
611;SDS011;293;53.888;11.464;2022-10-16T12:55:22;1.50;;;0.67;;
611;SDS011;293;53.888;11.464;2022-10-16T12:58:02;3.23;;;0.60;;
611;SDS011;293;53.888;11.464;2022-10-16T13:00:40;5.67;;;1.23;;
611;SDS011;293;53.888;11.464;2022-10-16T13:03:23;2.10;;;1.07;;
611;SDS011;293;53.888;11.464;2022-10-16T13:06:08;1.63;;;0.63;;
611;SDS011;293;53.888;11.464;2022-10-16T13:08:47;14.13;;;12.70;;
611;SDS011;293;53.888;11.464;2022-10-16T13:11:27;13.03;;;8.90;;
611;SDS011;293;53.888;11.464;2022-10-16T13:14:19;2.90;;;1.90;;
611;SDS011;293;53.888;11.464;2022-10-16T13:17:20;7.10;;;2.27;;
611;SDS011;293;53.888;11.464;2022-10-16T13:19:53;2.53;;;1.33;;
611;SDS011;293;53.888;11.464;2022-10-16T13:22:33;2.07;;;0.60;;
611;SDS011;293;53.888;11.464;2022-10-16T13:25:13;1.63;;;1.03;;
611;SDS011;293;53.888;11.464;2022-10-16T13:27:49;4.30;;;1.10;;
611;SDS011;293;53.888;11.464;2022-10-16T13:30:22;3.13;;;1.03;;
611;SDS011;293;53.888;11.464;2022-10-16T13:32:52;0.93;;;0.60;;
611;SDS011;293;53.888;11.464;2022-10-16T13:35:26;2.00;;;0.70;;
611;SDS011;293;53.888;11.464;2022-10-16T13:38:09;5.83;;;2.03;;
611;SDS011;293;53.888;11.464;2022-10-16T13:40:47;4.10;;;2.90;;
611;SDS011;293;53.888;11.464;2022-10-16T13:43:20;2.23;;;0.90;;
611;SDS011;293;53.888;11.464;2022-10-16T13:45:54;2.57;;;0.80;;
611;SDS011;293;53.888;11.464;2022-10-16T13:48:22;7.77;;;1.60;;
611;SDS011;293;53.888;11.464;2022-10-16T13:51:06;1.97;;;0.87;;
611;SDS011;293;53.888;11.464;2022-10-16T13:53:39;3.90;;;1.30;;
611;SDS011;293;53.888;11.464;2022-10-16T13:56:09;1.70;;;0.73;;
611;SDS011;293;53.888;11.464;2022-10-16T13:58:37;1.03;;;0.80;;
611;SDS011;293;53.888;11.464;2022-10-16T14:01:06;1.70;;;0.70;;
611;SDS011;293;53.888;11.464;2022-10-16T14:03:43;2.90;;;1.00;;
611;SDS011;293;53.888;11.464;2022-10-16T14:06:12;1.20;;;0.80;;
611;SDS011;293;53.888;11.464;2022-10-16T14:08:42;1.53;;;0.80;;
611;SDS011;293;53.888;11.464;2022-10-16T14:11:11;2.33;;;0.90;;
611;SDS011;293;53.888;11.464;2022-10-16T14:13:38;2.50;;;0.80;;
611;SDS011;293;53.888;11.464;2022-10-16T14:16:16;1.87;;;0.80;;
611;SDS011;293;53.888;11.464;2022-10-16T14:18:46;2.10;;;0.87;;
611;SDS011;293;53.888;11.464;2022-10-16T14:21:20;2.93;;;0.63;;
611;SDS011;293;53.888;11.464;2022-10-16T14:23:47;1.90;;;1.40;;
611;SDS011;293;53.888;11.464;2022-10-16T14:26:15;3.03;;;0.80;;
611;SDS011;293;53.888;11.464;2022-10-16T14:28:44;1.80;;;1.20;;
611;SDS011;293;53.888;11.464;2022-10-16T14:31:23;24.47;;;22.30;;
611;SDS011;293;53.888;11.464;2022-10-16T14:33:52;20.73;;;16.67;;
611;SDS011;293;53.888;11.464;2022-10-16T14:36:20;22.57;;;11.73;;
611;SDS011;293;53.888;11.464;2022-10-16T14:38:49;7.23;;;3.57;;
611;SDS011;293;53.888;11.464;2022-10-16T14:41:23;5.00;;;2.50;;
611;SDS011;293;53.888;11.464;2022-10-16T14:43:51;4.40;;;1.30;;
611;SDS011;293;53.888;11.464;2022-10-16T14:46:22;5.13;;;1.83;;
611;SDS011;293;53.888;11.464;2022-10-16T14:48:57;3.27;;;1.07;;
611;SDS011;293;53.888;11.464;2022-10-16T14:51:28;2.17;;;1.27;;
611;SDS011;293;53.888;11.464;2022-10-16T14:53:55;5.40;;;2.20;;
611;SDS011;293;53.888;11.464;2022-10-16T14:56:23;3.90;;;0.80;;
611;SDS011;293;53.888;11.464;2022-10-16T14:58:53;6.93;;;1.57;;
611;SDS011;293;53.888;11.464;2022-10-16T15:01:23;5.40;;;2.00;;
611;SDS011;293;53.888;11.464;2022-10-16T15:03:50;2.60;;;1.27;;
611;SDS011;293;53.888;11.464;2022-10-16T15:06:19;7.67;;;2.53;;
611;SDS011;293;53.888;11.464;2022-10-16T15:08:47;2.67;;;1.30;;
611;SDS011;293;53.888;11.464;2022-10-16T15:11:14;5.30;;;1.00;;
611;SDS011;293;53.888;11.464;2022-10-16T15:13:43;1.53;;;0.90;;
611;SDS011;293;53.888;11.464;2022-10-16T15:16:10;2.93;;;1.20;;
611;SDS011;293;53.888;11.464;2022-10-16T15:18:39;3.03;;;1.47;;
611;SDS011;293;53.888;11.464;2022-10-16T15:21:07;4.90;;;1.13;;
611;SDS011;293;53.888;11.464;2022-10-16T15:23:34;2.00;;;0.90;;
611;SDS011;293;53.888;11.464;2022-10-16T15:26:00;7.07;;;1.83;;
611;SDS011;293;53.888;11.464;2022-10-16T15:28:27;2.23;;;1.33;;
611;SDS011;293;53.888;11.464;2022-10-16T15:30:55;5.20;;;2.80;;
611;SDS011;293;53.888;11.464;2022-10-16T15:33:23;3.33;;;2.20;;
611;SDS011;293;53.888;11.464;2022-10-16T15:35:53;3.33;;;1.40;;
611;SDS011;293;53.888;11.464;2022-10-16T15:38:21;5.80;;;2.83;;
611;SDS011;293;53.888;11.464;2022-10-16T15:40:49;2.93;;;1.17;;
611;SDS011;293;53.888;11.464;2022-10-16T15:43:16;4.90;;;1.00;;
611;SDS011;293;53.888;11.464;2022-10-16T15:45:44;2.00;;;0.93;;
611;SDS011;293;53.888;11.464;2022-10-16T15:48:11;2.83;;;1.70;;
611;SDS011;293;53.888;11.464;2022-10-16T15:50:39;3.40;;;2.13;;